AMX321 MMGL-MMAA
Flight info
| Callsign | AMX321 |
|---|---|
| Flight time | 0h 58m |
| Altitude | 35000 |
| Route | EMIRI1B EMIRI DCT ZIH J1 AVURO AVURO1B |
| Aircraft | B38M/M-SDE1FGHILORVWXY/HB1 |
Departure
| Time | 2026-05-06 02:15 |
|---|---|
| Airport | Guadalajara International Airport (MMGL) |
Arrival
| Time | 2026-05-06 03:14 |
|---|---|
| Airport | General Juan N. Álvarez International Airport (MMAA) |
| Time | Latitude | Longitude | Altitude | Speed | Heading |
|---|---|---|---|---|---|
| 2026-05-06 01:26 | 20.52372 | -103.29901 | 5028 ft | 0 kts | 18° |
| 2026-05-06 02:01 | 20.52352 | -103.29907 | 5028 ft | 4 kts | 9° |
| 2026-05-06 02:01 | 20.52325 | -103.29908 | 5028 ft | 4 kts | 345° |
| 2026-05-06 02:01 | 20.52306 | -103.29895 | 5028 ft | 3 kts | 297° |
| 2026-05-06 02:02 | 20.52305 | -103.29893 | 5028 ft | 3 kts | 296° |
| 2026-05-06 02:06 | 20.52306 | -103.29896 | 5028 ft | 3 kts | 296° |
| 2026-05-06 02:07 | 20.52310 | -103.29908 | 5028 ft | 2 kts | 290° |
| 2026-05-06 02:07 | 20.52315 | -103.29921 | 5028 ft | 2 kts | 288° |
| 2026-05-06 02:07 | 20.52319 | -103.29948 | 5028 ft | 1 kts | 276° |
| 2026-05-06 02:07 | 20.52322 | -103.29975 | 5028 ft | 2 kts | 276° |
| 2026-05-06 02:08 | 20.52319 | -103.30008 | 5025 ft | 6 kts | 245° |
| 2026-05-06 02:08 | 20.52287 | -103.30033 | 5026 ft | 6 kts | 204° |
| 2026-05-06 02:08 | 20.52250 | -103.30046 | 5028 ft | 6 kts | 199° |
| 2026-05-06 02:08 | 20.52213 | -103.30059 | 5028 ft | 6 kts | 192° |
| 2026-05-06 02:09 | 20.52179 | -103.30044 | 5028 ft | 6 kts | 130° |
| 2026-05-06 02:09 | 20.52160 | -103.30009 | 5027 ft | 5 kts | 117° |
| 2026-05-06 02:09 | 20.52144 | -103.29973 | 5028 ft | 5 kts | 112° |
| 2026-05-06 02:09 | 20.52133 | -103.29935 | 5028 ft | 5 kts | 106° |
| 2026-05-06 02:10 | 20.52122 | -103.29898 | 5028 ft | 5 kts | 111° |
| 2026-05-06 02:10 | 20.52107 | -103.29862 | 5024 ft | 6 kts | 113° |
| 2026-05-06 02:10 | 20.52088 | -103.29817 | 5028 ft | 9 kts | 117° |
| 2026-05-06 02:10 | 20.52049 | -103.29743 | 5025 ft | 12 kts | 118° |
| 2026-05-06 02:11 | 20.52022 | -103.29685 | 5026 ft | 7 kts | 116° |
| 2026-05-06 02:11 | 20.52003 | -103.29641 | 5028 ft | 6 kts | 114° |
| 2026-05-06 02:11 | 20.51985 | -103.29598 | 5029 ft | 5 kts | 114° |
| 2026-05-06 02:11 | 20.51972 | -103.29567 | 5029 ft | 5 kts | 114° |
| 2026-05-06 02:12 | 20.51965 | -103.29553 | 5029 ft | 0 kts | 119° |
| 2026-05-06 02:12 | 20.51959 | -103.29546 | 5029 ft | 4 kts | 134° |
| 2026-05-06 02:12 | 20.51931 | -103.29536 | 5029 ft | 4 kts | 176° |
| 2026-05-06 02:13 | 20.51884 | -103.29548 | 5027 ft | 8 kts | 201° |
| 2026-05-06 02:13 | 20.51835 | -103.29576 | 5028 ft | 8 kts | 221° |
| 2026-05-06 02:13 | 20.51828 | -103.29629 | 5026 ft | 8 kts | 288° |
| 2026-05-06 02:13 | 20.51830 | -103.29634 | 5029 ft | 0 kts | 290° |
| 2026-05-06 02:14 | 20.51830 | -103.29635 | 5029 ft | 1 kts | 290° |
| 2026-05-06 02:14 | 20.51867 | -103.29732 | 5024 ft | 42 kts | 292° |
| 2026-05-06 02:15 | 20.52088 | -103.30267 | 5023 ft | 114 kts | 294° |
| 2026-05-06 02:15 | 20.52490 | -103.31244 | 5029 ft | 172 kts | 292° |
| 2026-05-06 02:15 | 20.52982 | -103.32487 | 5604 ft | 184 kts | 293° |
| 2026-05-06 02:15 | 20.53485 | -103.33782 | 6411 ft | 187 kts | 291° |
| 2026-05-06 02:16 | 20.53962 | -103.35059 | 7259 ft | 186 kts | 291° |
| 2026-05-06 02:16 | 20.54451 | -103.36336 | 7812 ft | 188 kts | 291° |
| 2026-05-06 02:16 | 20.54969 | -103.37651 | 8188 ft | 199 kts | 291° |
| 2026-05-06 02:16 | 20.55547 | -103.39081 | 8353 ft | 219 kts | 291° |
| 2026-05-06 02:17 | 20.56085 | -103.40663 | 8462 ft | 235 kts | 274° |
| 2026-05-06 02:17 | 20.55738 | -103.42376 | 8597 ft | 247 kts | 238° |
| 2026-05-06 02:17 | 20.54470 | -103.43668 | 8738 ft | 261 kts | 208° |
| 2026-05-06 02:17 | 20.52760 | -103.44103 | 9406 ft | 251 kts | 179° |
| 2026-05-06 02:18 | 20.51140 | -103.43550 | 10047 ft | 245 kts | 146° |
| 2026-05-06 02:18 | 20.49954 | -103.42301 | 10745 ft | 235 kts | 133° |
| 2026-05-06 02:18 | 20.48911 | -103.41006 | 11395 ft | 226 kts | 132° |
| 2026-05-06 02:18 | 20.47916 | -103.39744 | 12018 ft | 219 kts | 132° |
| 2026-05-06 02:19 | 20.46849 | -103.38358 | 11429 ft | 271 kts | 132° |
| 2026-05-06 02:19 | 20.45518 | -103.36826 | 11459 ft | 297 kts | 136° |
| 2026-05-06 02:19 | 20.44063 | -103.35148 | 11501 ft | 323 kts | 132° |
| 2026-05-06 02:19 | 20.42565 | -103.33258 | 11653 ft | 343 kts | 131° |
| 2026-05-06 02:20 | 20.39370 | -103.29154 | 12205 ft | 371 kts | 131° |
| 2026-05-06 02:20 | 20.37711 | -103.27045 | 12822 ft | 371 kts | 131° |
| 2026-05-06 02:20 | 20.36041 | -103.24940 | 13439 ft | 371 kts | 131° |
| 2026-05-06 02:21 | 20.34368 | -103.22844 | 14069 ft | 372 kts | 132° |
| 2026-05-06 02:21 | 20.32683 | -103.20745 | 14703 ft | 372 kts | 132° |
| 2026-05-06 02:21 | 20.30998 | -103.18655 | 15330 ft | 373 kts | 132° |
| 2026-05-06 02:21 | 20.29310 | -103.16564 | 15944 ft | 373 kts | 132° |
| 2026-05-06 02:22 | 20.27616 | -103.14470 | 16567 ft | 373 kts | 132° |
| 2026-05-06 02:22 | 20.25925 | -103.12379 | 17190 ft | 372 kts | 132° |
| 2026-05-06 02:22 | 20.24231 | -103.10285 | 17818 ft | 372 kts | 132° |
| 2026-05-06 02:22 | 20.22544 | -103.08200 | 18442 ft | 371 kts | 132° |
| 2026-05-06 02:23 | 20.20864 | -103.06126 | 19050 ft | 371 kts | 132° |
| 2026-05-06 02:23 | 20.19178 | -103.04043 | 19685 ft | 370 kts | 132° |
| 2026-05-06 02:23 | 20.17501 | -103.01974 | 20280 ft | 369 kts | 132° |
| 2026-05-06 02:23 | 20.15816 | -102.99895 | 20769 ft | 372 kts | 132° |
| 2026-05-06 02:24 | 20.14122 | -102.97806 | 21272 ft | 374 kts | 132° |
| 2026-05-06 02:24 | 20.12423 | -102.95713 | 21760 ft | 375 kts | 132° |
| 2026-05-06 02:24 | 20.11294 | -102.94321 | 22050 ft | 377 kts | 132° |
| 2026-05-06 02:24 | 20.09572 | -102.92199 | 22476 ft | 379 kts | 132° |
| 2026-05-06 02:25 | 20.07843 | -102.90068 | 22898 ft | 381 kts | 132° |
| 2026-05-06 02:25 | 20.06109 | -102.87932 | 23326 ft | 383 kts | 132° |
| 2026-05-06 02:25 | 20.03752 | -102.85033 | 23456 ft | 398 kts | 132° |
| 2026-05-06 02:25 | 20.02524 | -102.83522 | 23501 ft | 405 kts | 132° |
| 2026-05-06 02:26 | 20.00657 | -102.81226 | 23609 ft | 413 kts | 132° |
| 2026-05-06 02:26 | 19.98772 | -102.78907 | 23906 ft | 416 kts | 132° |
| 2026-05-06 02:26 | 19.96872 | -102.76570 | 24276 ft | 417 kts | 132° |
| 2026-05-06 02:26 | 19.94975 | -102.74238 | 24599 ft | 419 kts | 132° |
| 2026-05-06 02:27 | 19.93064 | -102.71891 | 24845 ft | 422 kts | 132° |
| 2026-05-06 02:27 | 19.91134 | -102.69520 | 25097 ft | 425 kts | 132° |
| 2026-05-06 02:27 | 19.89191 | -102.67135 | 25323 ft | 428 kts | 132° |
| 2026-05-06 02:27 | 19.87237 | -102.64738 | 25611 ft | 430 kts | 132° |
| 2026-05-06 02:28 | 19.85279 | -102.62336 | 25888 ft | 432 kts | 132° |
| 2026-05-06 02:28 | 19.83296 | -102.59907 | 26109 ft | 435 kts | 133° |
| 2026-05-06 02:28 | 19.81174 | -102.57653 | 26346 ft | 436 kts | 141° |
| 2026-05-06 02:28 | 19.78723 | -102.55710 | 26611 ft | 436 kts | 148° |
| 2026-05-06 02:29 | 19.76049 | -102.54188 | 26858 ft | 437 kts | 155° |
| 2026-05-06 02:29 | 19.73295 | -102.52814 | 27109 ft | 438 kts | 156° |
| 2026-05-06 02:29 | 19.70553 | -102.51474 | 27353 ft | 440 kts | 156° |
| 2026-05-06 02:29 | 19.67776 | -102.50120 | 27603 ft | 442 kts | 156° |
| 2026-05-06 02:30 | 19.64970 | -102.48745 | 27853 ft | 443 kts | 156° |
| 2026-05-06 02:30 | 19.62181 | -102.47368 | 28099 ft | 444 kts | 156° |
| 2026-05-06 02:30 | 19.59385 | -102.45977 | 28349 ft | 446 kts | 156° |
| 2026-05-06 02:30 | 19.56562 | -102.44569 | 28596 ft | 447 kts | 156° |
| 2026-05-06 02:31 | 19.53729 | -102.43154 | 28752 ft | 451 kts | 156° |
| 2026-05-06 02:31 | 19.50885 | -102.41733 | 28905 ft | 454 kts | 156° |
| 2026-05-06 02:31 | 19.48022 | -102.40303 | 29049 ft | 456 kts | 156° |
| 2026-05-06 02:31 | 19.45150 | -102.38869 | 29199 ft | 459 kts | 156° |
| 2026-05-06 02:32 | 19.42248 | -102.37420 | 29368 ft | 461 kts | 156° |
| 2026-05-06 02:32 | 19.39344 | -102.35971 | 29636 ft | 461 kts | 156° |
| 2026-05-06 02:32 | 19.36447 | -102.34526 | 29959 ft | 459 kts | 156° |
| 2026-05-06 02:32 | 19.33561 | -102.33086 | 30277 ft | 458 kts | 156° |
| 2026-05-06 02:33 | 19.30681 | -102.31650 | 30596 ft | 457 kts | 156° |
| 2026-05-06 02:33 | 19.28778 | -102.30702 | 30807 ft | 456 kts | 156° |
| 2026-05-06 02:34 | 19.19169 | -102.25920 | 31580 ft | 460 kts | 156° |
| 2026-05-06 02:34 | 19.16268 | -102.24478 | 31843 ft | 459 kts | 156° |
| 2026-05-06 02:34 | 19.13383 | -102.23043 | 32149 ft | 458 kts | 156° |
| 2026-05-06 02:34 | 19.10497 | -102.21609 | 32458 ft | 457 kts | 156° |
| 2026-05-06 02:35 | 19.07627 | -102.20182 | 32731 ft | 456 kts | 156° |
| 2026-05-06 02:35 | 19.04748 | -102.18752 | 32975 ft | 456 kts | 156° |
| 2026-05-06 02:35 | 19.01882 | -102.17330 | 33279 ft | 455 kts | 156° |
| 2026-05-06 02:35 | 18.99022 | -102.15910 | 33566 ft | 454 kts | 156° |
| 2026-05-06 02:36 | 18.96160 | -102.14491 | 33837 ft | 454 kts | 156° |
| 2026-05-06 02:36 | 18.93300 | -102.13074 | 34105 ft | 453 kts | 156° |
| 2026-05-06 02:36 | 18.90448 | -102.11661 | 34369 ft | 452 kts | 156° |
| 2026-05-06 02:36 | 18.87607 | -102.10253 | 34623 ft | 452 kts | 156° |
| 2026-05-06 02:37 | 18.84750 | -102.08837 | 34855 ft | 452 kts | 156° |
| 2026-05-06 02:37 | 18.81903 | -102.07427 | 35072 ft | 452 kts | 156° |
| 2026-05-06 02:37 | 18.79045 | -102.06012 | 35119 ft | 455 kts | 156° |
| 2026-05-06 02:38 | 18.73274 | -102.03159 | 35132 ft | 461 kts | 156° |
| 2026-05-06 02:38 | 18.67429 | -102.00270 | 35123 ft | 466 kts | 156° |
| 2026-05-06 02:39 | 18.61539 | -101.97363 | 35127 ft | 468 kts | 156° |
| 2026-05-06 02:39 | 18.55626 | -101.94444 | 35115 ft | 469 kts | 156° |
| 2026-05-06 02:40 | 18.49724 | -101.91533 | 35099 ft | 468 kts | 156° |
| 2026-05-06 02:40 | 18.43841 | -101.88633 | 35089 ft | 466 kts | 156° |
| 2026-05-06 02:41 | 18.37971 | -101.85743 | 35028 ft | 465 kts | 156° |
| 2026-05-06 02:41 | 18.32151 | -101.82879 | 34984 ft | 464 kts | 156° |
| 2026-05-06 02:42 | 18.26312 | -101.80009 | 34960 ft | 462 kts | 156° |
| 2026-05-06 02:42 | 18.20509 | -101.77159 | 34942 ft | 460 kts | 156° |
| 2026-05-06 02:43 | 18.14727 | -101.74320 | 34932 ft | 458 kts | 156° |
| 2026-05-06 02:43 | 18.08958 | -101.71491 | 34919 ft | 457 kts | 156° |
| 2026-05-06 02:44 | 18.03202 | -101.68669 | 34914 ft | 456 kts | 156° |
| 2026-05-06 02:44 | 17.97441 | -101.65848 | 34904 ft | 457 kts | 156° |
| 2026-05-06 02:45 | 17.91673 | -101.63024 | 34907 ft | 458 kts | 156° |
| 2026-05-06 02:45 | 17.85869 | -101.60185 | 34899 ft | 461 kts | 156° |
| 2026-05-06 02:46 | 17.80031 | -101.57332 | 34891 ft | 463 kts | 156° |
| 2026-05-06 02:46 | 17.74189 | -101.54478 | 34637 ft | 463 kts | 156° |
| 2026-05-06 02:46 | 17.71276 | -101.53055 | 34103 ft | 459 kts | 156° |
| 2026-05-06 02:47 | 17.68405 | -101.51654 | 33429 ft | 452 kts | 156° |
| 2026-05-06 02:47 | 17.65585 | -101.50277 | 32899 ft | 444 kts | 156° |
| 2026-05-06 02:47 | 17.62920 | -101.48773 | 32316 ft | 438 kts | 146° |
| 2026-05-06 02:47 | 17.60610 | -101.46732 | 31781 ft | 431 kts | 135° |
| 2026-05-06 02:48 | 17.58667 | -101.44304 | 31229 ft | 432 kts | 125° |
| 2026-05-06 02:48 | 17.57188 | -101.41580 | 30698 ft | 439 kts | 118° |
| 2026-05-06 02:48 | 17.55808 | -101.38705 | 30026 ft | 432 kts | 117° |
| 2026-05-06 02:48 | 17.54511 | -101.35938 | 29376 ft | 424 kts | 117° |
| 2026-05-06 02:49 | 17.53219 | -101.33182 | 28725 ft | 419 kts | 117° |
| 2026-05-06 02:49 | 17.51923 | -101.30444 | 28091 ft | 421 kts | 117° |
| 2026-05-06 02:49 | 17.50605 | -101.27687 | 27445 ft | 425 kts | 117° |
| 2026-05-06 02:49 | 17.49270 | -101.24914 | 26810 ft | 429 kts | 117° |
| 2026-05-06 02:50 | 17.47917 | -101.22116 | 26160 ft | 429 kts | 117° |
| 2026-05-06 02:50 | 17.46571 | -101.19340 | 25520 ft | 431 kts | 117° |
| 2026-05-06 02:50 | 17.45205 | -101.16527 | 24882 ft | 433 kts | 117° |
| 2026-05-06 02:50 | 17.43840 | -101.13717 | 24229 ft | 431 kts | 117° |
| 2026-05-06 02:51 | 17.42489 | -101.10937 | 23579 ft | 428 kts | 117° |
| 2026-05-06 02:51 | 17.41140 | -101.08159 | 22961 ft | 425 kts | 117° |
| 2026-05-06 02:51 | 17.39818 | -101.05439 | 22683 ft | 411 kts | 117° |
| 2026-05-06 02:51 | 17.38538 | -101.02806 | 22414 ft | 401 kts | 117° |
| 2026-05-06 02:52 | 17.37288 | -101.00235 | 22153 ft | 392 kts | 117° |
| 2026-05-06 02:52 | 17.36067 | -100.97725 | 21891 ft | 383 kts | 117° |
| 2026-05-06 02:52 | 17.34870 | -100.95266 | 21641 ft | 375 kts | 117° |
| 2026-05-06 02:52 | 17.33692 | -100.92847 | 21208 ft | 372 kts | 117° |
| 2026-05-06 02:53 | 17.32519 | -100.90438 | 20762 ft | 370 kts | 117° |
| 2026-05-06 02:53 | 17.31354 | -100.88048 | 20313 ft | 368 kts | 117° |
| 2026-05-06 02:53 | 17.30197 | -100.85675 | 19863 ft | 365 kts | 116° |
| 2026-05-06 02:53 | 17.29044 | -100.83309 | 19418 ft | 363 kts | 116° |
| 2026-05-06 02:54 | 17.27904 | -100.80969 | 18969 ft | 361 kts | 116° |
| 2026-05-06 02:54 | 17.26767 | -100.78640 | 18516 ft | 358 kts | 116° |
| 2026-05-06 02:54 | 17.25637 | -100.76325 | 18076 ft | 356 kts | 116° |
| 2026-05-06 02:54 | 17.24512 | -100.74021 | 17621 ft | 354 kts | 116° |
| 2026-05-06 02:55 | 17.23394 | -100.71732 | 17175 ft | 353 kts | 116° |
| 2026-05-06 02:55 | 17.22278 | -100.69449 | 16727 ft | 351 kts | 116° |
| 2026-05-06 02:55 | 17.21164 | -100.67179 | 16272 ft | 350 kts | 116° |
| 2026-05-06 02:55 | 17.20056 | -100.64923 | 15823 ft | 348 kts | 116° |
| 2026-05-06 02:56 | 17.18951 | -100.62675 | 15372 ft | 347 kts | 116° |
| 2026-05-06 02:56 | 17.17851 | -100.60437 | 14924 ft | 346 kts | 116° |
| 2026-05-06 02:56 | 17.16754 | -100.58206 | 14471 ft | 344 kts | 116° |
| 2026-05-06 02:56 | 17.15659 | -100.55979 | 14025 ft | 343 kts | 116° |
| 2026-05-06 02:57 | 17.14571 | -100.53765 | 13580 ft | 342 kts | 116° |
| 2026-05-06 02:57 | 17.13485 | -100.51556 | 13125 ft | 341 kts | 116° |
| 2026-05-06 02:57 | 17.12405 | -100.49361 | 12662 ft | 336 kts | 116° |
| 2026-05-06 02:57 | 17.11348 | -100.47215 | 12361 ft | 326 kts | 116° |
| 2026-05-06 02:58 | 17.10316 | -100.45118 | 12111 ft | 326 kts | 116° |
| 2026-05-06 02:58 | 17.09266 | -100.42985 | 11872 ft | 334 kts | 116° |
| 2026-05-06 02:58 | 17.08197 | -100.40814 | 11631 ft | 337 kts | 116° |
| 2026-05-06 02:58 | 17.07129 | -100.38645 | 11372 ft | 334 kts | 116° |
| 2026-05-06 02:59 | 17.06070 | -100.36496 | 11132 ft | 333 kts | 116° |
| 2026-05-06 02:59 | 17.05011 | -100.34347 | 10868 ft | 332 kts | 116° |
| 2026-05-06 02:59 | 17.03955 | -100.32206 | 10618 ft | 332 kts | 116° |
| 2026-05-06 02:59 | 17.02895 | -100.30056 | 10375 ft | 331 kts | 117° |
| 2026-05-06 03:00 | 17.01854 | -100.27948 | 10122 ft | 331 kts | 117° |
| 2026-05-06 03:00 | 17.00800 | -100.25811 | 9873 ft | 331 kts | 117° |
| 2026-05-06 03:00 | 16.99760 | -100.23706 | 9611 ft | 321 kts | 117° |
| 2026-05-06 03:00 | 16.98814 | -100.21634 | 9337 ft | 309 kts | 111° |
| 2026-05-06 03:01 | 16.98118 | -100.19555 | 9075 ft | 297 kts | 108° |
| 2026-05-06 03:01 | 16.97516 | -100.17526 | 8810 ft | 289 kts | 107° |
| 2026-05-06 03:01 | 16.96936 | -100.15532 | 8550 ft | 284 kts | 107° |
| 2026-05-06 03:01 | 16.96359 | -100.13572 | 8308 ft | 282 kts | 108° |
| 2026-05-06 03:02 | 16.95772 | -100.11622 | 8064 ft | 281 kts | 108° |
| 2026-05-06 03:02 | 16.95183 | -100.09685 | 7813 ft | 279 kts | 108° |
| 2026-05-06 03:02 | 16.94657 | -100.07969 | 7598 ft | 281 kts | 108° |
| 2026-05-06 03:02 | 16.94038 | -100.05962 | 7388 ft | 303 kts | 109° |
| 2026-05-06 03:03 | 16.93378 | -100.03832 | 7140 ft | 310 kts | 109° |
| 2026-05-06 03:03 | 16.92936 | -100.02410 | 7043 ft | 306 kts | 109° |
| 2026-05-06 03:03 | 16.92295 | -100.00340 | 6983 ft | 295 kts | 109° |
| 2026-05-06 03:03 | 16.91676 | -99.98350 | 6973 ft | 283 kts | 109° |
| 2026-05-06 03:04 | 16.91074 | -99.96414 | 6979 ft | 279 kts | 108° |
| 2026-05-06 03:04 | 16.90475 | -99.94490 | 6992 ft | 280 kts | 109° |
| 2026-05-06 03:04 | 16.89869 | -99.92547 | 6996 ft | 282 kts | 109° |
| 2026-05-06 03:04 | 16.89263 | -99.90602 | 6994 ft | 282 kts | 108° |
| 2026-05-06 03:05 | 16.88655 | -99.88653 | 6994 ft | 284 kts | 109° |
| 2026-05-06 03:05 | 16.88044 | -99.86695 | 6995 ft | 283 kts | 109° |
| 2026-05-06 03:05 | 16.87432 | -99.84736 | 6983 ft | 283 kts | 108° |
| 2026-05-06 03:05 | 16.86823 | -99.82785 | 6993 ft | 282 kts | 109° |
| 2026-05-06 03:06 | 16.86215 | -99.80840 | 6986 ft | 281 kts | 109° |
| 2026-05-06 03:06 | 16.85605 | -99.78890 | 6748 ft | 286 kts | 109° |
| 2026-05-06 03:06 | 16.84987 | -99.76923 | 6505 ft | 285 kts | 109° |
| 2026-05-06 03:06 | 16.84376 | -99.74970 | 6284 ft | 280 kts | 109° |
| 2026-05-06 03:07 | 16.83789 | -99.73097 | 6236 ft | 264 kts | 109° |
| 2026-05-06 03:07 | 16.83235 | -99.71323 | 6107 ft | 250 kts | 109° |
| 2026-05-06 03:07 | 16.82711 | -99.69651 | 5998 ft | 236 kts | 109° |
| 2026-05-06 03:07 | 16.82214 | -99.68057 | 5738 ft | 230 kts | 109° |
| 2026-05-06 03:08 | 16.81700 | -99.66422 | 5297 ft | 241 kts | 109° |
| 2026-05-06 03:08 | 16.81156 | -99.64683 | 5037 ft | 262 kts | 109° |
| 2026-05-06 03:08 | 16.80576 | -99.62834 | 4767 ft | 272 kts | 109° |
| 2026-05-06 03:08 | 16.79985 | -99.60951 | 4518 ft | 273 kts | 109° |
| 2026-05-06 03:09 | 16.79334 | -99.59105 | 4254 ft | 270 kts | 121° |
| 2026-05-06 03:09 | 16.78086 | -99.57703 | 4023 ft | 263 kts | 150° |
| 2026-05-06 03:09 | 16.76399 | -99.57095 | 3830 ft | 252 kts | 176° |
| 2026-05-06 03:09 | 16.74735 | -99.57219 | 3745 ft | 233 kts | 196° |
| 2026-05-06 03:10 | 16.73236 | -99.57701 | 3651 ft | 217 kts | 200° |
| 2026-05-06 03:10 | 16.72011 | -99.58484 | 3488 ft | 202 kts | 235° |
| 2026-05-06 03:10 | 16.71618 | -99.59830 | 3234 ft | 194 kts | 273° |
| 2026-05-06 03:10 | 16.71651 | -99.61174 | 3113 ft | 182 kts | 270° |
| 2026-05-06 03:11 | 16.71808 | -99.62459 | 2802 ft | 181 kts | 281° |
| 2026-05-06 03:11 | 16.72101 | -99.63734 | 2522 ft | 179 kts | 285° |
| 2026-05-06 03:11 | 16.72458 | -99.64937 | 2290 ft | 169 kts | 287° |
| 2026-05-06 03:11 | 16.72818 | -99.66096 | 1929 ft | 166 kts | 287° |
| 2026-05-06 03:12 | 16.73166 | -99.67212 | 1653 ft | 156 kts | 287° |
| 2026-05-06 03:12 | 16.73498 | -99.68281 | 1354 ft | 154 kts | 287° |
| 2026-05-06 03:12 | 16.73839 | -99.69381 | 1351 ft | 160 kts | 287° |
| 2026-05-06 03:12 | 16.74180 | -99.70486 | 1158 ft | 163 kts | 287° |
| 2026-05-06 03:13 | 16.74519 | -99.71650 | 670 ft | 171 kts | 287° |
| 2026-05-06 03:13 | 16.74893 | -99.72782 | 295 ft | 161 kts | 288° |
| 2026-05-06 03:13 | 16.75231 | -99.73852 | 36 ft | 146 kts | 287° |
| 2026-05-06 03:13 | 16.75517 | -99.74740 | 17 ft | 101 kts | 291° |
| 2026-05-06 03:14 | 16.75671 | -99.75256 | 18 ft | 61 kts | 288° |
| 2026-05-06 03:14 | 16.75786 | -99.75628 | 20 ft | 40 kts | 289° |
| 2026-05-06 03:14 | 16.75863 | -99.75866 | 19 ft | 31 kts | 288° |
| 2026-05-06 03:14 | 16.75928 | -99.76071 | 19 ft | 28 kts | 288° |
| 2026-05-06 03:15 | 16.76001 | -99.76220 | 18 ft | 19 kts | 310° |
| 2026-05-06 03:15 | 16.76074 | -99.76267 | 17 ft | 11 kts | 356° |
| 2026-05-06 03:15 | 16.76139 | -99.76248 | 17 ft | 8 kts | 32° |
| 2026-05-06 03:15 | 16.76166 | -99.76209 | 16 ft | 6 kts | 75° |
| 2026-05-06 03:16 | 16.76159 | -99.76169 | 16 ft | 6 kts | 106° |
| 2026-05-06 03:16 | 16.76142 | -99.76113 | 17 ft | 10 kts | 108° |
| 2026-05-06 03:16 | 16.76124 | -99.76056 | 18 ft | 6 kts | 108° |
| 2026-05-06 03:16 | 16.76111 | -99.76015 | 16 ft | 6 kts | 109° |
| 2026-05-06 03:17 | 16.76098 | -99.75975 | 16 ft | 6 kts | 108° |
| 2026-05-06 03:17 | 16.76087 | -99.75935 | 17 ft | 6 kts | 107° |
| 2026-05-06 03:17 | 16.76075 | -99.75896 | 18 ft | 6 kts | 106° |
| 2026-05-06 03:17 | 16.76064 | -99.75857 | 17 ft | 6 kts | 107° |
| 2026-05-06 03:18 | 16.76057 | -99.75819 | 17 ft | 5 kts | 91° |
| 2026-05-06 03:18 | 16.76070 | -99.75782 | 17 ft | 5 kts | 53° |
| 2026-05-06 03:18 | 16.76088 | -99.75750 | 17 ft | 5 kts | 79° |
| 2026-05-06 03:18 | 16.76086 | -99.75736 | 17 ft | 1 kts | 102° |
| 2026-05-06 03:19 | 16.76085 | -99.75728 | 17 ft | 1 kts | 102° |
| 2026-05-06 03:19 | 16.76083 | -99.75722 | 17 ft | 1 kts | 102° |
| 2026-05-06 03:19 | 16.76077 | -99.75689 | 16 ft | 9 kts | 102° |
| 2026-05-06 03:19 | 16.76064 | -99.75642 | 16 ft | 6 kts | 107° |
| 2026-05-06 03:20 | 16.76062 | -99.75589 | 16 ft | 4 kts | 49° |
| 2026-05-06 03:20 | 16.76090 | -99.75574 | 16 ft | 4 kts | 19° |
| 2026-05-06 03:20 | 16.76115 | -99.75565 | 16 ft | 3 kts | 17° |
| 2026-05-06 03:21 | 16.76136 | -99.75558 | 16 ft | 3 kts | 17° |
| 2026-05-06 03:21 | 16.76145 | -99.75555 | 16 ft | 0 kts | 19° |